Portada
METAR-TAF:

METAR-TAF

Aeroports :

Pikeville, Kentucky, Estats Units d'Amèrica

latitud: 37-33-42N, longitud: 082-33-59W, altitud: 449 m

Observació

L'informe es va fer fa 37 minuts, a les 00:15 UTC
Vent 6 kt del Sud/Sud-Oest
Temperatura 21°C
Humitat 56%
Pressió 1015 hPa
Visibilitat: 16.1 km
Núvols disperses a una alçada de 4700 ft
Núvols disperses a una alçada de 5500 ft

METAR: KPBX 180015Z AUTO 20006KT 10SM SCT047 SCT055 21/12 A2997 RMK AO2 T02070115

Hora: 20:52 (00:52 UTC)


TAF: manca

Observacions i pronòstics meteorològics de més de 4000 aeroports (METAR i TAF).

Les estacions disponibles són els punts grocs i vermells al mapa.

Posi el ratolí al punt desitjat per veure el nom de l'estació.

Feu clic per veure les observacions i els pronòstics meteorològics.

Per canviar el mapa: feu clic els botons verds amb una creu de color negre per apropar; al botó verd amb un guió per allunyar la imatge; o en les fletxes verdes per a mapes adjacents.


METAR-TAF: